sensor_id;sensor_type;location;lat;lon;timestamp;P1;durP1;ratioP1;P2;durP2;ratioP2
13743;SDS011;6943;52.368;9.966;2024-02-28T00:01:50;15.03;;;8.93;;
13743;SDS011;6943;52.368;9.966;2024-02-28T00:04:21;12.10;;;9.20;;
13743;SDS011;6943;52.368;9.966;2024-02-28T00:06:51;12.33;;;9.80;;
13743;SDS011;6943;52.368;9.966;2024-02-28T00:09:19;11.10;;;8.97;;
13743;SDS011;6943;52.368;9.966;2024-02-28T00:11:47;11.87;;;9.43;;
13743;SDS011;6943;52.368;9.966;2024-02-28T00:14:15;14.20;;;10.47;;
13743;SDS011;6943;52.368;9.966;2024-02-28T00:16:44;11.00;;;9.50;;
13743;SDS011;6943;52.368;9.966;2024-02-28T00:19:13;12.97;;;9.87;;
13743;SDS011;6943;52.368;9.966;2024-02-28T00:21:43;12.73;;;10.40;;
13743;SDS011;6943;52.368;9.966;2024-02-28T00:24:11;11.47;;;9.63;;
13743;SDS011;6943;52.368;9.966;2024-02-28T00:26:42;11.60;;;9.80;;
13743;SDS011;6943;52.368;9.966;2024-02-28T00:29:10;11.13;;;9.90;;
13743;SDS011;6943;52.368;9.966;2024-02-28T00:31:38;11.70;;;9.80;;
13743;SDS011;6943;52.368;9.966;2024-02-28T00:34:06;13.63;;;10.73;;
13743;SDS011;6943;52.368;9.966;2024-02-28T00:36:37;12.97;;;9.90;;
13743;SDS011;6943;52.368;9.966;2024-02-28T00:39:08;12.77;;;9.97;;
13743;SDS011;6943;52.368;9.966;2024-02-28T00:41:37;13.33;;;10.00;;
13743;SDS011;6943;52.368;9.966;2024-02-28T00:44:03;12.50;;;9.90;;
13743;SDS011;6943;52.368;9.966;2024-02-28T00:46:31;11.63;;;9.57;;
13743;SDS011;6943;52.368;9.966;2024-02-28T00:48:57;12.67;;;10.30;;
13743;SDS011;6943;52.368;9.966;2024-02-28T00:51:22;11.87;;;9.47;;
13743;SDS011;6943;52.368;9.966;2024-02-28T00:53:48;11.57;;;9.53;;
13743;SDS011;6943;52.368;9.966;2024-02-28T00:56:14;12.73;;;10.03;;
13743;SDS011;6943;52.368;9.966;2024-02-28T00:58:40;11.73;;;9.73;;
13743;SDS011;6943;52.368;9.966;2024-02-28T01:01:05;12.93;;;10.23;;
13743;SDS011;6943;52.368;9.966;2024-02-28T01:03:32;12.20;;;10.30;;
13743;SDS011;6943;52.368;9.966;2024-02-28T01:05:58;12.20;;;10.47;;
13743;SDS011;6943;52.368;9.966;2024-02-28T01:08:26;12.60;;;10.30;;
13743;SDS011;6943;52.368;9.966;2024-02-28T01:10:51;12.20;;;10.07;;
13743;SDS011;6943;52.368;9.966;2024-02-28T01:13:19;12.93;;;10.10;;
13743;SDS011;6943;52.368;9.966;2024-02-28T01:15:44;13.40;;;10.80;;
13743;SDS011;6943;52.368;9.966;2024-02-28T01:18:10;12.23;;;10.33;;
13743;SDS011;6943;52.368;9.966;2024-02-28T01:20:35;11.70;;;10.50;;
13743;SDS011;6943;52.368;9.966;2024-02-28T01:23:01;13.43;;;10.53;;
13743;SDS011;6943;52.368;9.966;2024-02-28T01:25:27;11.97;;;10.50;;
13743;SDS011;6943;52.368;9.966;2024-02-28T01:27:52;13.27;;;10.93;;
13743;SDS011;6943;52.368;9.966;2024-02-28T01:30:18;14.27;;;10.90;;
13743;SDS011;6943;52.368;9.966;2024-02-28T01:32:43;14.93;;;11.47;;
13743;SDS011;6943;52.368;9.966;2024-02-28T01:35:09;13.93;;;11.43;;
13743;SDS011;6943;52.368;9.966;2024-02-28T01:37:35;13.23;;;9.80;;
13743;SDS011;6943;52.368;9.966;2024-02-28T01:40:01;13.20;;;10.20;;
13743;SDS011;6943;52.368;9.966;2024-02-28T01:42:29;13.13;;;10.37;;
13743;SDS011;6943;52.368;9.966;2024-02-28T01:44:55;14.90;;;10.53;;
13743;SDS011;6943;52.368;9.966;2024-02-28T01:47:20;14.10;;;10.83;;
13743;SDS011;6943;52.368;9.966;2024-02-28T01:49:46;14.97;;;11.17;;
13743;SDS011;6943;52.368;9.966;2024-02-28T01:52:12;13.23;;;10.43;;
13743;SDS011;6943;52.368;9.966;2024-02-28T01:54:38;13.73;;;10.17;;
13743;SDS011;6943;52.368;9.966;2024-02-28T01:57:04;15.53;;;11.90;;
13743;SDS011;6943;52.368;9.966;2024-02-28T01:59:31;14.00;;;11.00;;
13743;SDS011;6943;52.368;9.966;2024-02-28T02:01:57;13.20;;;11.20;;
13743;SDS011;6943;52.368;9.966;2024-02-28T02:04:22;11.77;;;10.10;;
13743;SDS011;6943;52.368;9.966;2024-02-28T02:06:48;13.70;;;10.37;;
13743;SDS011;6943;52.368;9.966;2024-02-28T02:09:14;12.87;;;10.23;;
13743;SDS011;6943;52.368;9.966;2024-02-28T02:11:40;17.07;;;11.83;;
13743;SDS011;6943;52.368;9.966;2024-02-28T02:14:06;14.10;;;11.10;;
13743;SDS011;6943;52.368;9.966;2024-02-28T02:16:33;12.70;;;11.13;;
13743;SDS011;6943;52.368;9.966;2024-02-28T02:18:59;15.73;;;12.73;;
13743;SDS011;6943;52.368;9.966;2024-02-28T02:21:27;16.33;;;13.73;;
13743;SDS011;6943;52.368;9.966;2024-02-28T02:23:54;16.67;;;12.70;;
13743;SDS011;6943;52.368;9.966;2024-02-28T02:26:20;14.63;;;11.80;;
13743;SDS011;6943;52.368;9.966;2024-02-28T02:28:46;14.47;;;12.07;;
13743;SDS011;6943;52.368;9.966;2024-02-28T02:31:13;16.77;;;12.20;;
13743;SDS011;6943;52.368;9.966;2024-02-28T02:33:39;14.77;;;12.67;;
13743;SDS011;6943;52.368;9.966;2024-02-28T02:36:07;15.27;;;11.77;;
13743;SDS011;6943;52.368;9.966;2024-02-28T02:38:34;15.07;;;11.97;;
13743;SDS011;6943;52.368;9.966;2024-02-28T02:41:00;16.00;;;12.03;;
13743;SDS011;6943;52.368;9.966;2024-02-28T02:43:26;15.87;;;12.23;;
13743;SDS011;6943;52.368;9.966;2024-02-28T02:45:52;15.00;;;11.23;;
13743;SDS011;6943;52.368;9.966;2024-02-28T02:48:18;15.43;;;11.87;;
13743;SDS011;6943;52.368;9.966;2024-02-28T02:50:44;14.37;;;11.20;;
13743;SDS011;6943;52.368;9.966;2024-02-28T02:53:10;13.30;;;11.37;;
13743;SDS011;6943;52.368;9.966;2024-02-28T02:55:36;14.83;;;11.47;;
13743;SDS011;6943;52.368;9.966;2024-02-28T02:58:02;15.77;;;12.77;;
13743;SDS011;6943;52.368;9.966;2024-02-28T03:00:28;17.43;;;13.80;;
13743;SDS011;6943;52.368;9.966;2024-02-28T03:02:54;18.73;;;13.77;;
13743;SDS011;6943;52.368;9.966;2024-02-28T03:05:21;17.20;;;13.00;;
13743;SDS011;6943;52.368;9.966;2024-02-28T03:07:47;16.57;;;12.40;;
13743;SDS011;6943;52.368;9.966;2024-02-28T03:10:13;15.67;;;13.03;;
13743;SDS011;6943;52.368;9.966;2024-02-28T03:12:41;19.73;;;14.23;;
13743;SDS011;6943;52.368;9.966;2024-02-28T03:15:06;16.53;;;13.37;;
13743;SDS011;6943;52.368;9.966;2024-02-28T03:17:32;19.77;;;14.23;;
13743;SDS011;6943;52.368;9.966;2024-02-28T03:19:58;17.77;;;13.67;;
13743;SDS011;6943;52.368;9.966;2024-02-28T03:22:27;18.77;;;14.23;;
13743;SDS011;6943;52.368;9.966;2024-02-28T03:24:52;16.07;;;13.67;;
13743;SDS011;6943;52.368;9.966;2024-02-28T03:27:18;16.73;;;13.23;;
13743;SDS011;6943;52.368;9.966;2024-02-28T03:29:44;18.67;;;14.03;;
13743;SDS011;6943;52.368;9.966;2024-02-28T03:32:10;17.63;;;14.03;;
13743;SDS011;6943;52.368;9.966;2024-02-28T03:34:35;17.30;;;12.53;;
13743;SDS011;6943;52.368;9.966;2024-02-28T03:37:03;20.73;;;14.83;;
13743;SDS011;6943;52.368;9.966;2024-02-28T03:39:30;17.60;;;14.10;;
13743;SDS011;6943;52.368;9.966;2024-02-28T03:41:56;17.73;;;13.77;;
13743;SDS011;6943;52.368;9.966;2024-02-28T03:44:22;15.33;;;12.70;;
13743;SDS011;6943;52.368;9.966;2024-02-28T03:46:48;17.27;;;12.80;;
13743;SDS011;6943;52.368;9.966;2024-02-28T03:49:14;17.03;;;12.70;;
13743;SDS011;6943;52.368;9.966;2024-02-28T03:51:40;14.90;;;11.57;;
13743;SDS011;6943;52.368;9.966;2024-02-28T03:54:06;14.47;;;12.20;;
13743;SDS011;6943;52.368;9.966;2024-02-28T03:56:32;14.93;;;12.83;;
13743;SDS011;6943;52.368;9.966;2024-02-28T03:59:00;15.50;;;11.73;;
13743;SDS011;6943;52.368;9.966;2024-02-28T04:01:28;14.37;;;12.70;;
13743;SDS011;6943;52.368;9.966;2024-02-28T04:03:55;17.97;;;12.63;;
13743;SDS011;6943;52.368;9.966;2024-02-28T04:06:21;15.77;;;12.67;;
13743;SDS011;6943;52.368;9.966;2024-02-28T04:08:47;16.90;;;13.53;;
13743;SDS011;6943;52.368;9.966;2024-02-28T04:11:13;19.87;;;13.90;;
13743;SDS011;6943;52.368;9.966;2024-02-28T04:13:39;16.10;;;12.70;;
13743;SDS011;6943;52.368;9.966;2024-02-28T04:16:06;16.73;;;13.33;;
13743;SDS011;6943;52.368;9.966;2024-02-28T04:18:32;15.77;;;12.83;;
13743;SDS011;6943;52.368;9.966;2024-02-28T04:20:58;16.63;;;12.87;;
13743;SDS011;6943;52.368;9.966;2024-02-28T04:23:24;15.80;;;12.30;;
13743;SDS011;6943;52.368;9.966;2024-02-28T04:25:50;20.30;;;14.20;;
13743;SDS011;6943;52.368;9.966;2024-02-28T04:28:16;17.60;;;12.80;;
13743;SDS011;6943;52.368;9.966;2024-02-28T04:30:42;18.07;;;12.83;;
13743;SDS011;6943;52.368;9.966;2024-02-28T04:33:08;15.50;;;13.50;;
13743;SDS011;6943;52.368;9.966;2024-02-28T04:35:34;19.63;;;14.60;;
13743;SDS011;6943;52.368;9.966;2024-02-28T04:38:00;18.50;;;14.47;;
13743;SDS011;6943;52.368;9.966;2024-02-28T04:40:26;20.93;;;15.63;;
13743;SDS011;6943;52.368;9.966;2024-02-28T04:42:52;22.23;;;16.60;;
13743;SDS011;6943;52.368;9.966;2024-02-28T04:45:18;20.97;;;16.20;;
13743;SDS011;6943;52.368;9.966;2024-02-28T04:47:44;22.80;;;16.37;;
13743;SDS011;6943;52.368;9.966;2024-02-28T04:50:10;24.20;;;17.93;;
13743;SDS011;6943;52.368;9.966;2024-02-28T04:52:36;23.07;;;17.10;;
13743;SDS011;6943;52.368;9.966;2024-02-28T04:55:01;24.20;;;17.93;;
13743;SDS011;6943;52.368;9.966;2024-02-28T04:57:27;27.03;;;18.20;;
13743;SDS011;6943;52.368;9.966;2024-02-28T04:59:53;27.90;;;19.07;;
13743;SDS011;6943;52.368;9.966;2024-02-28T05:02:19;25.97;;;18.03;;
13743;SDS011;6943;52.368;9.966;2024-02-28T05:04:47;30.60;;;19.60;;
13743;SDS011;6943;52.368;9.966;2024-02-28T05:07:12;27.37;;;18.17;;
13743;SDS011;6943;52.368;9.966;2024-02-28T05:09:38;29.50;;;19.07;;
13743;SDS011;6943;52.368;9.966;2024-02-28T05:12:04;26.20;;;18.93;;
13743;SDS011;6943;52.368;9.966;2024-02-28T05:14:30;30.10;;;20.67;;
13743;SDS011;6943;52.368;9.966;2024-02-28T05:16:55;30.73;;;21.70;;
13743;SDS011;6943;52.368;9.966;2024-02-28T05:19:21;30.70;;;21.70;;
13743;SDS011;6943;52.368;9.966;2024-02-28T05:21:47;30.00;;;21.47;;
13743;SDS011;6943;52.368;9.966;2024-02-28T05:24:14;31.00;;;20.37;;
13743;SDS011;6943;52.368;9.966;2024-02-28T05:26:39;33.50;;;22.17;;
13743;SDS011;6943;52.368;9.966;2024-02-28T05:29:05;32.27;;;20.57;;
13743;SDS011;6943;52.368;9.966;2024-02-28T05:31:31;31.30;;;21.63;;
13743;SDS011;6943;52.368;9.966;2024-02-28T05:33:58;29.77;;;20.40;;
13743;SDS011;6943;52.368;9.966;2024-02-28T05:36:24;30.07;;;20.80;;
13743;SDS011;6943;52.368;9.966;2024-02-28T05:38:54;28.97;;;21.53;;
13743;SDS011;6943;52.368;9.966;2024-02-28T05:41:21;30.47;;;21.83;;
13743;SDS011;6943;52.368;9.966;2024-02-28T05:43:47;33.17;;;20.97;;
13743;SDS011;6943;52.368;9.966;2024-02-28T05:46:13;29.33;;;21.23;;
13743;SDS011;6943;52.368;9.966;2024-02-28T05:48:43;30.07;;;20.10;;
13743;SDS011;6943;52.368;9.966;2024-02-28T05:51:10;34.70;;;23.20;;
13743;SDS011;6943;52.368;9.966;2024-02-28T05:53:35;30.77;;;21.90;;
13743;SDS011;6943;52.368;9.966;2024-02-28T05:56:02;31.80;;;21.70;;
13743;SDS011;6943;52.368;9.966;2024-02-28T05:58:28;32.40;;;22.53;;
13743;SDS011;6943;52.368;9.966;2024-02-28T06:00:54;31.87;;;22.50;;
13743;SDS011;6943;52.368;9.966;2024-02-28T06:03:20;33.97;;;22.00;;
13743;SDS011;6943;52.368;9.966;2024-02-28T06:05:46;29.83;;;21.80;;
13743;SDS011;6943;52.368;9.966;2024-02-28T06:08:12;33.23;;;22.00;;
13743;SDS011;6943;52.368;9.966;2024-02-28T06:10:38;31.20;;;21.43;;
13743;SDS011;6943;52.368;9.966;2024-02-28T06:13:04;30.87;;;22.90;;
13743;SDS011;6943;52.368;9.966;2024-02-28T06:15:30;30.40;;;22.33;;
13743;SDS011;6943;52.368;9.966;2024-02-28T06:17:56;28.33;;;20.80;;
13743;SDS011;6943;52.368;9.966;2024-02-28T06:20:22;29.43;;;21.97;;
13743;SDS011;6943;52.368;9.966;2024-02-28T06:22:48;31.40;;;21.43;;
13743;SDS011;6943;52.368;9.966;2024-02-28T06:25:13;29.67;;;20.63;;
13743;SDS011;6943;52.368;9.966;2024-02-28T06:27:44;31.63;;;20.20;;
13743;SDS011;6943;52.368;9.966;2024-02-28T06:30:09;27.43;;;20.33;;
13743;SDS011;6943;52.368;9.966;2024-02-28T06:32:35;31.87;;;21.30;;
13743;SDS011;6943;52.368;9.966;2024-02-28T06:35:01;29.83;;;21.23;;
13743;SDS011;6943;52.368;9.966;2024-02-28T06:37:26;29.70;;;21.23;;
13743;SDS011;6943;52.368;9.966;2024-02-28T06:39:53;31.00;;;21.03;;
13743;SDS011;6943;52.368;9.966;2024-02-28T06:42:18;31.87;;;22.27;;
13743;SDS011;6943;52.368;9.966;2024-02-28T06:44:44;32.03;;;21.60;;
13743;SDS011;6943;52.368;9.966;2024-02-28T06:47:09;30.77;;;21.80;;
13743;SDS011;6943;52.368;9.966;2024-02-28T06:49:35;30.23;;;22.33;;
13743;SDS011;6943;52.368;9.966;2024-02-28T06:52:00;31.43;;;21.40;;
13743;SDS011;6943;52.368;9.966;2024-02-28T06:54:26;30.13;;;21.97;;
13743;SDS011;6943;52.368;9.966;2024-02-28T06:56:52;32.83;;;22.13;;
13743;SDS011;6943;52.368;9.966;2024-02-28T06:59:18;31.13;;;21.87;;
13743;SDS011;6943;52.368;9.966;2024-02-28T07:01:43;31.30;;;21.53;;
13743;SDS011;6943;52.368;9.966;2024-02-28T07:04:09;34.10;;;23.37;;
13743;SDS011;6943;52.368;9.966;2024-02-28T07:06:34;30.00;;;21.80;;
13743;SDS011;6943;52.368;9.966;2024-02-28T07:09:00;34.47;;;22.37;;
13743;SDS011;6943;52.368;9.966;2024-02-28T07:11:25;30.53;;;21.10;;
13743;SDS011;6943;52.368;9.966;2024-02-28T07:13:53;31.43;;;21.13;;
13743;SDS011;6943;52.368;9.966;2024-02-28T07:16:19;31.13;;;20.97;;
13743;SDS011;6943;52.368;9.966;2024-02-28T07:18:45;31.13;;;21.00;;
13743;SDS011;6943;52.368;9.966;2024-02-28T07:21:11;30.00;;;20.67;;
13743;SDS011;6943;52.368;9.966;2024-02-28T07:23:40;31.53;;;21.43;;
13743;SDS011;6943;52.368;9.966;2024-02-28T07:26:06;30.47;;;21.83;;
13743;SDS011;6943;52.368;9.966;2024-02-28T07:28:32;29.47;;;21.20;;
13743;SDS011;6943;52.368;9.966;2024-02-28T07:30:58;32.03;;;21.40;;
13743;SDS011;6943;52.368;9.966;2024-02-28T07:33:23;28.70;;;20.57;;
13743;SDS011;6943;52.368;9.966;2024-02-28T07:35:49;28.03;;;20.60;;
13743;SDS011;6943;52.368;9.966;2024-02-28T07:38:17;30.10;;;21.43;;
13743;SDS011;6943;52.368;9.966;2024-02-28T07:40:45;29.97;;;21.03;;
13743;SDS011;6943;52.368;9.966;2024-02-28T07:43:11;29.07;;;19.60;;
13743;SDS011;6943;52.368;9.966;2024-02-28T07:45:36;29.83;;;20.13;;
13743;SDS011;6943;52.368;9.966;2024-02-28T07:48:02;28.33;;;21.20;;
13743;SDS011;6943;52.368;9.966;2024-02-28T07:50:27;30.77;;;21.90;;
13743;SDS011;6943;52.368;9.966;2024-02-28T07:52:56;31.47;;;20.97;;
13743;SDS011;6943;52.368;9.966;2024-02-28T07:55:21;28.67;;;20.17;;
13743;SDS011;6943;52.368;9.966;2024-02-28T07:57:50;31.27;;;21.07;;
13743;SDS011;6943;52.368;9.966;2024-02-28T08:00:16;29.90;;;21.77;;
13743;SDS011;6943;52.368;9.966;2024-02-28T08:02:44;33.67;;;22.43;;
13743;SDS011;6943;52.368;9.966;2024-02-28T08:05:09;32.10;;;22.47;;
13743;SDS011;6943;52.368;9.966;2024-02-28T08:07:35;31.17;;;21.50;;
13743;SDS011;6943;52.368;9.966;2024-02-28T08:10:01;36.87;;;22.67;;
13743;SDS011;6943;52.368;9.966;2024-02-28T08:12:27;34.60;;;23.33;;
13743;SDS011;6943;52.368;9.966;2024-02-28T08:14:52;31.17;;;21.83;;
13743;SDS011;6943;52.368;9.966;2024-02-28T08:17:18;34.03;;;23.57;;
13743;SDS011;6943;52.368;9.966;2024-02-28T08:19:43;36.03;;;22.73;;
13743;SDS011;6943;52.368;9.966;2024-02-28T08:22:09;33.90;;;23.73;;
13743;SDS011;6943;52.368;9.966;2024-02-28T08:24:35;32.63;;;22.63;;
13743;SDS011;6943;52.368;9.966;2024-02-28T08:27:01;31.90;;;23.60;;
13743;SDS011;6943;52.368;9.966;2024-02-28T08:29:27;34.00;;;23.87;;
13743;SDS011;6943;52.368;9.966;2024-02-28T08:31:57;32.40;;;23.23;;
13743;SDS011;6943;52.368;9.966;2024-02-28T08:34:25;35.37;;;25.07;;
13743;SDS011;6943;52.368;9.966;2024-02-28T08:36:54;33.50;;;24.73;;
13743;SDS011;6943;52.368;9.966;2024-02-28T08:39:22;34.27;;;24.57;;
13743;SDS011;6943;52.368;9.966;2024-02-28T08:41:48;32.53;;;23.17;;
13743;SDS011;6943;52.368;9.966;2024-02-28T08:44:14;34.63;;;24.03;;
13743;SDS011;6943;52.368;9.966;2024-02-28T08:46:40;35.07;;;24.70;;
13743;SDS011;6943;52.368;9.966;2024-02-28T08:49:06;33.83;;;23.77;;
13743;SDS011;6943;52.368;9.966;2024-02-28T08:51:33;33.73;;;23.63;;
13743;SDS011;6943;52.368;9.966;2024-02-28T08:53:59;35.20;;;23.27;;
13743;SDS011;6943;52.368;9.966;2024-02-28T08:56:28;35.93;;;23.83;;
13743;SDS011;6943;52.368;9.966;2024-02-28T08:58:54;35.27;;;23.87;;
13743;SDS011;6943;52.368;9.966;2024-02-28T09:01:20;35.20;;;24.27;;
13743;SDS011;6943;52.368;9.966;2024-02-28T09:03:46;36.43;;;24.53;;
13743;SDS011;6943;52.368;9.966;2024-02-28T09:06:11;35.57;;;23.40;;
13743;SDS011;6943;52.368;9.966;2024-02-28T09:08:37;36.50;;;24.17;;
13743;SDS011;6943;52.368;9.966;2024-02-28T09:11:02;37.63;;;24.97;;
13743;SDS011;6943;52.368;9.966;2024-02-28T09:13:29;37.37;;;25.80;;
13743;SDS011;6943;52.368;9.966;2024-02-28T09:15:55;36.00;;;25.03;;
13743;SDS011;6943;52.368;9.966;2024-02-28T09:18:23;34.23;;;25.30;;
13743;SDS011;6943;52.368;9.966;2024-02-28T09:20:51;33.30;;;25.90;;
13743;SDS011;6943;52.368;9.966;2024-02-28T09:23:17;33.60;;;25.47;;
13743;SDS011;6943;52.368;9.966;2024-02-28T09:25:46;33.33;;;25.43;;
13743;SDS011;6943;52.368;9.966;2024-02-28T09:28:11;32.73;;;24.77;;
13743;SDS011;6943;52.368;9.966;2024-02-28T09:30:41;30.10;;;22.87;;
13743;SDS011;6943;52.368;9.966;2024-02-28T09:33:07;34.33;;;24.53;;
13743;SDS011;6943;52.368;9.966;2024-02-28T09:35:33;33.53;;;24.73;;
13743;SDS011;6943;52.368;9.966;2024-02-28T09:38:02;34.60;;;25.13;;
13743;SDS011;6943;52.368;9.966;2024-02-28T09:40:30;33.17;;;24.63;;
13743;SDS011;6943;52.368;9.966;2024-02-28T09:43:02;30.93;;;23.57;;
13743;SDS011;6943;52.368;9.966;2024-02-28T09:45:29;30.90;;;23.27;;
13743;SDS011;6943;52.368;9.966;2024-02-28T09:47:56;30.87;;;23.40;;
13743;SDS011;6943;52.368;9.966;2024-02-28T09:50:22;29.77;;;22.93;;
13743;SDS011;6943;52.368;9.966;2024-02-28T09:52:50;31.17;;;22.73;;
13743;SDS011;6943;52.368;9.966;2024-02-28T09:55:15;33.00;;;23.23;;
13743;SDS011;6943;52.368;9.966;2024-02-28T09:57:45;31.37;;;21.73;;
13743;SDS011;6943;52.368;9.966;2024-02-28T10:00:14;33.07;;;23.93;;
13743;SDS011;6943;52.368;9.966;2024-02-28T10:02:41;34.43;;;24.57;;
13743;SDS011;6943;52.368;9.966;2024-02-28T10:05:09;29.87;;;22.50;;
13743;SDS011;6943;52.368;9.966;2024-02-28T10:07:35;32.73;;;23.50;;
13743;SDS011;6943;52.368;9.966;2024-02-28T10:10:01;30.37;;;22.17;;
13743;SDS011;6943;52.368;9.966;2024-02-28T10:12:26;31.63;;;20.97;;
13743;SDS011;6943;52.368;9.966;2024-02-28T10:14:52;32.13;;;22.90;;
13743;SDS011;6943;52.368;9.966;2024-02-28T10:17:17;30.80;;;22.60;;
13743;SDS011;6943;52.368;9.966;2024-02-28T10:19:43;29.73;;;21.00;;
13743;SDS011;6943;52.368;9.966;2024-02-28T10:22:08;31.63;;;22.00;;
13743;SDS011;6943;52.368;9.966;2024-02-28T10:24:34;30.60;;;22.30;;
13743;SDS011;6943;52.368;9.966;2024-02-28T10:27:00;33.00;;;23.33;;
13743;SDS011;6943;52.368;9.966;2024-02-28T10:29:26;28.63;;;21.83;;
13743;SDS011;6943;52.368;9.966;2024-02-28T10:31:57;30.13;;;22.00;;
13743;SDS011;6943;52.368;9.966;2024-02-28T10:34:27;31.37;;;23.10;;
13743;SDS011;6943;52.368;9.966;2024-02-28T10:36:53;31.83;;;22.20;;
13743;SDS011;6943;52.368;9.966;2024-02-28T10:39:19;29.57;;;21.97;;
13743;SDS011;6943;52.368;9.966;2024-02-28T10:41:47;31.70;;;22.63;;
13743;SDS011;6943;52.368;9.966;2024-02-28T10:44:13;31.90;;;22.80;;
13743;SDS011;6943;52.368;9.966;2024-02-28T10:46:40;33.67;;;23.20;;
13743;SDS011;6943;52.368;9.966;2024-02-28T10:49:06;32.37;;;22.53;;
13743;SDS011;6943;52.368;9.966;2024-02-28T10:51:34;32.97;;;23.20;;
13743;SDS011;6943;52.368;9.966;2024-02-28T10:56:36;29.23;;;21.87;;
13743;SDS011;6943;52.368;9.966;2024-02-28T10:59:02;31.10;;;22.20;;
13743;SDS011;6943;52.368;9.966;2024-02-28T11:01:28;31.20;;;22.97;;
13743;SDS011;6943;52.368;9.966;2024-02-28T11:03:55;29.93;;;22.00;;
13743;SDS011;6943;52.368;9.966;2024-02-28T11:06:21;29.63;;;22.60;;
13743;SDS011;6943;52.368;9.966;2024-02-28T11:08:47;31.53;;;23.70;;
13743;SDS011;6943;52.368;9.966;2024-02-28T11:11:17;33.07;;;23.07;;
13743;SDS011;6943;52.368;9.966;2024-02-28T11:13:51;30.77;;;22.57;;
13743;SDS011;6943;52.368;9.966;2024-02-28T11:18:53;32.70;;;23.70;;
13743;SDS011;6943;52.368;9.966;2024-02-28T11:21:19;33.87;;;23.90;;
13743;SDS011;6943;52.368;9.966;2024-02-28T11:23:49;32.90;;;23.17;;
13743;SDS011;6943;52.368;9.966;2024-02-28T11:26:15;30.80;;;22.60;;
13743;SDS011;6943;52.368;9.966;2024-02-28T11:28:40;32.67;;;21.87;;
13743;SDS011;6943;52.368;9.966;2024-02-28T11:31:06;35.60;;;24.13;;
13743;SDS011;6943;52.368;9.966;2024-02-28T11:33:32;33.97;;;24.10;;
13743;SDS011;6943;52.368;9.966;2024-02-28T11:36:00;34.87;;;23.30;;
13743;SDS011;6943;52.368;9.966;2024-02-28T11:38:28;32.23;;;22.00;;
13743;SDS011;6943;52.368;9.966;2024-02-28T11:40:54;34.07;;;23.60;;
13743;SDS011;6943;52.368;9.966;2024-02-28T11:43:20;32.80;;;22.83;;
13743;SDS011;6943;52.368;9.966;2024-02-28T11:45:46;32.90;;;22.67;;
13743;SDS011;6943;52.368;9.966;2024-02-28T11:48:13;35.50;;;22.70;;
13743;SDS011;6943;52.368;9.966;2024-02-28T11:50:39;30.47;;;22.73;;
13743;SDS011;6943;52.368;9.966;2024-02-28T11:53:05;33.30;;;22.87;;
13743;SDS011;6943;52.368;9.966;2024-02-28T11:55:31;32.73;;;23.80;;
13743;SDS011;6943;52.368;9.966;2024-02-28T11:57:57;33.57;;;24.70;;
13743;SDS011;6943;52.368;9.966;2024-02-28T12:00:23;34.47;;;23.67;;
13743;SDS011;6943;52.368;9.966;2024-02-28T12:02:48;32.00;;;23.40;;
13743;SDS011;6943;52.368;9.966;2024-02-28T12:05:13;35.77;;;24.40;;
13743;SDS011;6943;52.368;9.966;2024-02-28T12:07:39;36.03;;;23.87;;
13743;SDS011;6943;52.368;9.966;2024-02-28T12:10:06;37.30;;;24.63;;
13743;SDS011;6943;52.368;9.966;2024-02-28T12:12:33;34.37;;;23.23;;
13743;SDS011;6943;52.368;9.966;2024-02-28T12:14:59;36.97;;;24.73;;
13743;SDS011;6943;52.368;9.966;2024-02-28T12:17:25;33.90;;;24.17;;
13743;SDS011;6943;52.368;9.966;2024-02-28T12:19:51;35.43;;;24.07;;
13743;SDS011;6943;52.368;9.966;2024-02-28T12:22:17;34.70;;;23.93;;
13743;SDS011;6943;52.368;9.966;2024-02-28T12:24:43;33.97;;;24.07;;
13743;SDS011;6943;52.368;9.966;2024-02-28T12:27:08;34.17;;;22.77;;
13743;SDS011;6943;52.368;9.966;2024-02-28T12:29:34;36.23;;;24.17;;
13743;SDS011;6943;52.368;9.966;2024-02-28T12:31:59;37.23;;;25.07;;
13743;SDS011;6943;52.368;9.966;2024-02-28T12:34:25;35.67;;;25.00;;
13743;SDS011;6943;52.368;9.966;2024-02-28T12:36:51;37.23;;;24.07;;
13743;SDS011;6943;52.368;9.966;2024-02-28T12:39:17;36.23;;;25.10;;
13743;SDS011;6943;52.368;9.966;2024-02-28T12:41:42;34.93;;;24.93;;
13743;SDS011;6943;52.368;9.966;2024-02-28T12:44:08;38.60;;;26.17;;
13743;SDS011;6943;52.368;9.966;2024-02-28T12:46:34;38.00;;;25.03;;
13743;SDS011;6943;52.368;9.966;2024-02-28T12:49:00;37.20;;;25.37;;
13743;SDS011;6943;52.368;9.966;2024-02-28T12:51:41;40.17;;;25.97;;
13743;SDS011;6943;52.368;9.966;2024-02-28T12:54:09;39.63;;;24.97;;
13743;SDS011;6943;52.368;9.966;2024-02-28T12:56:40;38.10;;;25.50;;
13743;SDS011;6943;52.368;9.966;2024-02-28T12:59:08;37.17;;;24.03;;
13743;SDS011;6943;52.368;9.966;2024-02-28T13:01:33;38.00;;;24.63;;
13743;SDS011;6943;52.368;9.966;2024-02-28T13:03:59;37.27;;;24.17;;
13743;SDS011;6943;52.368;9.966;2024-02-28T13:06:25;35.10;;;23.80;;
13743;SDS011;6943;52.368;9.966;2024-02-28T13:08:51;38.30;;;24.60;;
13743;SDS011;6943;52.368;9.966;2024-02-28T13:11:20;39.90;;;24.80;;
13743;SDS011;6943;52.368;9.966;2024-02-28T13:13:50;40.00;;;26.30;;
13743;SDS011;6943;52.368;9.966;2024-02-28T13:16:16;37.83;;;24.67;;
13743;SDS011;6943;52.368;9.966;2024-02-28T13:18:45;38.33;;;23.73;;
13743;SDS011;6943;52.368;9.966;2024-02-28T13:21:11;40.40;;;25.83;;
13743;SDS011;6943;52.368;9.966;2024-02-28T13:23:37;39.60;;;26.33;;
13743;SDS011;6943;52.368;9.966;2024-02-28T13:26:03;39.47;;;24.10;;
13743;SDS011;6943;52.368;9.966;2024-02-28T13:28:29;39.43;;;25.23;;
13743;SDS011;6943;52.368;9.966;2024-02-28T13:30:58;40.37;;;24.67;;
13743;SDS011;6943;52.368;9.966;2024-02-28T13:33:24;38.70;;;23.57;;
13743;SDS011;6943;52.368;9.966;2024-02-28T13:35:50;39.30;;;25.40;;
13743;SDS011;6943;52.368;9.966;2024-02-28T13:38:19;38.83;;;25.87;;
13743;SDS011;6943;52.368;9.966;2024-02-28T13:40:45;38.17;;;24.10;;
13743;SDS011;6943;52.368;9.966;2024-02-28T13:43:14;38.00;;;24.03;;
13743;SDS011;6943;52.368;9.966;2024-02-28T13:45:40;38.80;;;23.40;;
13743;SDS011;6943;52.368;9.966;2024-02-28T13:48:14;36.43;;;23.40;;
13743;SDS011;6943;52.368;9.966;2024-02-28T13:50:52;35.97;;;24.93;;
13743;SDS011;6943;52.368;9.966;2024-02-28T13:53:17;41.00;;;25.47;;
13743;SDS011;6943;52.368;9.966;2024-02-28T13:55:44;37.43;;;25.43;;
13743;SDS011;6943;52.368;9.966;2024-02-28T13:58:12;36.03;;;23.43;;
13743;SDS011;6943;52.368;9.966;2024-02-28T14:00:44;38.37;;;23.63;;
13743;SDS011;6943;52.368;9.966;2024-02-28T14:03:13;37.00;;;23.50;;
13743;SDS011;6943;52.368;9.966;2024-02-28T14:05:42;39.37;;;25.40;;
13743;SDS011;6943;52.368;9.966;2024-02-28T14:08:08;38.37;;;24.13;;
13743;SDS011;6943;52.368;9.966;2024-02-28T14:10:35;39.43;;;23.63;;
13743;SDS011;6943;52.368;9.966;2024-02-28T14:13:02;35.13;;;22.67;;
13743;SDS011;6943;52.368;9.966;2024-02-28T14:15:28;34.63;;;22.73;;
13743;SDS011;6943;52.368;9.966;2024-02-28T14:17:54;34.97;;;22.90;;
13743;SDS011;6943;52.368;9.966;2024-02-28T14:20:19;37.90;;;24.17;;
13743;SDS011;6943;52.368;9.966;2024-02-28T14:22:45;40.13;;;24.50;;
13743;SDS011;6943;52.368;9.966;2024-02-28T14:25:14;39.33;;;24.93;;
13743;SDS011;6943;52.368;9.966;2024-02-28T14:27:46;38.83;;;23.83;;
13743;SDS011;6943;52.368;9.966;2024-02-28T14:30:12;40.93;;;25.07;;
13743;SDS011;6943;52.368;9.966;2024-02-28T14:32:39;36.93;;;24.50;;
13743;SDS011;6943;52.368;9.966;2024-02-28T14:35:05;39.03;;;23.77;;
13743;SDS011;6943;52.368;9.966;2024-02-28T14:37:32;36.77;;;24.17;;